Dryfork, West Virginia
Current Conditions -  °F | °C
As of 3:55 AM on Sunday 26 Oct 2014 (Local Time) from KW99 Reporting Station
Clear Clear  
Wind Chill: 59°   Ceiling: Unl
Heat Index: 59°   Visibility: 10mi
Dew Point: 30°   Wind: 8mph
Humidity: 34%   Direction: 340°NNW
Pressure: 29.79"   Gusts: NA
Location:  38.97°N, 79.5°W
Report Text: KW99 260755Z AUTO 34007KT 10SM CLR 15/M01 A2979 RMK AO2 T01501010
Loading
Personal Weather Stations






























Interactive Weather Map
Tropical Storm Tracking
New forecast layout! Learn more

10-Day Weather Forecast

Advertisements
Track Severe Weather on mobile